createdAt,value
2023-04-05T00:02:14.167Z,7.65
2023-04-05T00:07:17.422Z,7.07
2023-04-05T00:12:18.992Z,9.13
2023-04-05T00:17:20.889Z,7.45
2023-04-05T00:22:25.519Z,7.53
2023-04-05T00:27:27.158Z,6.97
2023-04-05T00:32:29.363Z,8.88
2023-04-05T00:37:30.892Z,7.50
2023-04-05T00:42:32.489Z,8.25
2023-04-05T00:47:34.539Z,6.85
2023-04-05T00:52:38.102Z,8.80
2023-04-05T00:57:40.144Z,8.95
2023-04-05T01:02:49.977Z,7.18
2023-04-05T01:08:04.720Z,8.20
2023-04-05T01:13:06.684Z,8.32
2023-04-05T01:18:10.564Z,11.18
2023-04-05T01:23:38.000Z,11.88
2023-04-05T01:29:04.887Z,11.43
2023-04-05T01:34:24.570Z,9.57
2023-04-05T01:39:27.458Z,8.45
2023-04-05T01:44:29.441Z,8.13
2023-04-05T01:49:31.269Z,7.68
2023-04-05T01:54:32.809Z,9.20
2023-04-05T01:59:34.367Z,7.70
2023-04-05T02:04:35.921Z,8.57
2023-04-05T02:09:37.465Z,7.82
2023-04-05T02:14:39.038Z,8.40
2023-04-05T02:19:46.430Z,9.13
2023-04-05T02:24:48.225Z,10.38
2023-04-05T02:29:49.739Z,7.55
2023-04-05T02:34:52.571Z,10.43
2023-04-05T02:39:54.569Z,8.13
2023-04-05T02:44:56.519Z,10.02
2023-04-05T02:49:58.305Z,7.15
2023-04-05T02:55:06.542Z,9.23
2023-04-05T03:00:11.023Z,9.63
2023-04-05T03:05:13.923Z,8.07
2023-04-05T03:10:26.355Z,10.38
2023-04-05T03:15:33.590Z,7.53
2023-04-05T03:20:41.406Z,9.07
2023-04-05T03:25:50.883Z,9.43
2023-04-05T03:30:54.058Z,8.68
2023-04-05T03:35:56.312Z,8.38
2023-04-05T03:40:58.711Z,7.45
2023-04-05T03:46:00.458Z,9.10
2023-04-05T03:51:04.173Z,10.80
2023-04-05T03:56:06.493Z,8.75
2023-04-05T04:01:19.445Z,9.80
2023-04-05T04:06:21.375Z,9.70
2023-04-05T04:11:23.096Z,9.50
2023-04-05T04:16:26.761Z,7.15
2023-04-05T04:21:45.784Z,9.80
2023-04-05T04:26:56.736Z,10.77
2023-04-05T04:32:17.298Z,8.45
2023-04-05T04:37:32.354Z,9.32
2023-04-05T04:42:58.742Z,11.73
2023-04-05T04:48:14.451Z,8.32
2023-04-05T04:53:32.526Z,9.13
2023-04-05T04:58:34.193Z,10.48
2023-04-05T05:03:40.274Z,11.13
2023-04-05T05:08:41.969Z,8.23
2023-04-05T05:13:43.556Z,8.93
2023-04-05T05:18:52.000Z,12.32
2023-04-05T05:23:54.184Z,10.88
2023-04-05T05:28:56.492Z,10.50
2023-04-05T05:34:02.928Z,8.75
2023-04-05T05:39:05.953Z,8.55
2023-04-05T05:44:07.474Z,8.35
2023-04-05T05:49:09.174Z,10.07
2023-04-05T05:54:11.065Z,11.57
2023-04-05T05:59:12.781Z,11.32
2023-04-05T06:04:14.483Z,13.18
2023-04-05T06:09:17.120Z,15.20
2023-04-05T06:14:18.953Z,10.35
2023-04-05T06:19:20.602Z,11.43
2023-04-05T06:24:22.287Z,11.80
2023-04-05T06:29:23.986Z,11.80
2023-04-05T06:34:25.588Z,12.15
2023-04-05T06:39:27.194Z,10.80
2023-04-05T06:44:29.009Z,11.85
2023-04-05T06:49:30.958Z,12.95
2023-04-05T06:54:39.528Z,13.15
2023-04-05T06:59:41.716Z,11.25
2023-04-05T07:04:43.821Z,11.05
2023-04-05T07:09:47.038Z,10.38
2023-04-05T07:14:48.549Z,13.18
2023-04-05T07:19:50.125Z,11.02
2023-04-05T07:24:52.436Z,9.57
2023-04-05T07:29:53.907Z,11.85
2023-04-05T07:34:56.750Z,10.93
2023-04-05T07:39:58.469Z,11.80
2023-04-05T07:44:59.923Z,11.85
2023-04-05T07:50:02.252Z,13.93
2023-04-05T07:55:03.907Z,11.25
2023-04-05T08:00:12.474Z,12.00
2023-04-05T08:05:17.405Z,10.20
2023-04-05T08:10:18.984Z,11.65
2023-04-05T08:15:21.037Z,10.98
2023-04-05T08:20:22.543Z,11.20
2023-04-05T08:25:24.079Z,11.13
2023-04-05T08:30:29.258Z,11.45
2023-04-05T08:35:31.540Z,9.93
2023-04-05T08:40:44.578Z,16.13
2023-04-05T08:45:51.585Z,11.20
2023-04-05T08:50:55.142Z,12.63
2023-04-05T08:56:00.361Z,10.90
2023-04-05T09:01:02.420Z,11.07
2023-04-05T09:06:07.630Z,12.63
2023-04-05T09:11:11.524Z,9.95
2023-04-05T09:16:16.029Z,8.80
2023-04-05T09:21:17.761Z,9.68
2023-04-05T09:26:21.413Z,10.82
2023-04-05T09:31:36.917Z,7.60
2023-04-05T09:36:47.200Z,8.30
2023-04-05T09:42:08.517Z,7.30
2023-04-05T09:47:22.766Z,7.47
2023-04-05T09:52:32.017Z,8.65
2023-04-05T09:57:35.483Z,9.20
2023-04-05T10:02:39.351Z,10.68
2023-04-05T10:07:44.691Z,7.72
2023-04-05T10:12:47.902Z,7.85
2023-04-05T10:17:55.481Z,12.00
2023-04-05T10:23:17.183Z,6.00
2023-04-05T10:28:35.684Z,8.07
2023-04-05T10:33:45.974Z,7.45
2023-04-05T10:39:26.162Z,10.95
2023-04-05T10:44:32.907Z,10.18
2023-04-05T10:49:40.236Z,9.27
2023-04-05T10:54:42.819Z,8.25
2023-04-05T10:59:46.282Z,8.07
2023-04-05T11:04:56.145Z,6.78
2023-04-05T11:10:02.478Z,7.68
2023-04-05T11:15:32.987Z,6.95
2023-04-05T11:20:47.866Z,9.02
2023-04-05T11:25:55.000Z,8.18
2023-04-05T11:30:58.441Z,9.07
2023-04-05T11:36:04.093Z,8.40
2023-04-05T11:41:21.162Z,9.98
2023-04-05T11:46:32.218Z,10.43
2023-04-05T11:51:33.958Z,9.50
2023-04-05T11:56:35.541Z,7.72
2023-04-05T12:01:39.545Z,9.88
2023-04-05T12:06:41.077Z,8.25
2023-04-05T12:11:42.569Z,10.65
2023-04-05T12:16:50.689Z,8.13
2023-04-05T12:21:52.321Z,7.25
2023-04-05T12:26:56.244Z,8.82
2023-04-05T12:32:01.265Z,7.57
2023-04-05T12:37:03.733Z,8.23
2023-04-05T12:42:05.440Z,7.43
2023-04-05T12:47:11.029Z,11.00
2023-04-05T12:52:20.910Z,9.05
2023-04-05T13:02:31.819Z,11.00
2023-04-05T13:07:33.336Z,7.13
2023-04-05T13:12:34.857Z,9.10
2023-04-05T13:17:42.968Z,7.53
2023-04-05T13:22:45.650Z,8.27
2023-04-05T13:27:47.329Z,7.07
2023-04-05T13:32:48.851Z,6.72
2023-04-05T13:37:53.309Z,8.15
2023-04-05T13:42:54.801Z,6.63
2023-04-05T13:47:56.333Z,6.97
2023-04-05T13:52:59.355Z,7.95
2023-04-05T13:58:00.950Z,5.55
2023-04-05T14:03:02.602Z,5.75
2023-04-05T14:08:04.152Z,5.63
2023-04-05T14:13:12.965Z,5.45
2023-04-05T14:18:14.440Z,7.22
2023-04-05T14:23:15.942Z,5.32
2023-04-05T14:28:17.498Z,4.68
2023-04-05T14:33:19.045Z,5.85
2023-04-05T14:38:20.702Z,5.80
2023-04-05T14:43:23.539Z,4.47
2023-04-05T14:48:25.183Z,5.22
2023-04-05T14:53:26.938Z,5.15
2023-04-05T14:58:29.315Z,4.43
2023-04-05T15:03:31.483Z,4.40
2023-04-05T15:08:33.342Z,4.55
2023-04-05T15:13:35.007Z,5.15
2023-04-05T15:18:36.476Z,4.97
2023-04-05T15:23:40.502Z,5.15
2023-04-05T15:28:41.986Z,4.95
2023-04-05T15:33:43.490Z,5.55
2023-04-05T15:38:45.489Z,5.95
2023-04-05T15:43:47.853Z,6.15
2023-04-05T15:48:51.765Z,6.03
2023-04-05T15:53:54.176Z,5.45
2023-04-05T15:58:56.125Z,5.88
2023-04-05T16:03:57.718Z,4.88
2023-04-05T16:09:00.625Z,5.50
2023-04-05T16:14:03.345Z,6.72
2023-04-05T16:19:06.054Z,4.90
2023-04-05T16:24:07.716Z,6.25
2023-04-05T16:29:09.289Z,4.00
2023-04-05T16:34:10.968Z,5.53
2023-04-05T16:39:12.530Z,5.28
2023-04-05T16:44:14.008Z,4.65
2023-04-05T16:49:15.871Z,4.93
2023-04-05T16:54:17.361Z,5.50
2023-04-05T16:59:18.870Z,3.92
2023-04-05T17:04:20.372Z,5.88
2023-04-05T17:09:23.036Z,4.20
2023-04-05T17:14:24.728Z,5.95
2023-04-05T17:19:26.496Z,5.88
2023-04-05T17:24:36.836Z,7.90
2023-04-05T17:29:39.140Z,8.02
2023-04-05T17:34:40.612Z,6.10
2023-04-05T17:39:42.096Z,4.65
2023-04-05T17:44:46.104Z,4.80
2023-04-05T17:49:47.580Z,4.60
2023-04-05T17:54:49.196Z,5.32
2023-04-05T17:59:53.181Z,5.82
2023-04-05T18:04:54.678Z,5.85
2023-04-05T18:09:56.409Z,6.28
2023-04-05T18:14:57.917Z,5.93
2023-04-05T18:19:59.472Z,6.82
2023-04-05T18:25:00.996Z,7.78
2023-04-05T18:30:02.992Z,7.63
2023-04-05T18:35:04.799Z,6.22
2023-04-05T18:40:07.040Z,6.32
2023-04-05T18:45:09.003Z,4.72
2023-04-05T18:50:10.982Z,5.28
2023-04-05T18:55:13.975Z,4.43
2023-04-05T19:00:15.653Z,6.35
2023-04-05T19:05:17.192Z,4.68
2023-04-05T19:10:18.729Z,4.55
2023-04-05T19:15:20.454Z,4.97
2023-04-05T19:20:21.911Z,6.30
2023-04-05T19:25:23.397Z,5.32
2023-04-05T19:30:25.051Z,4.97
2023-04-05T19:35:26.619Z,7.20
2023-04-05T19:40:28.090Z,5.10
2023-04-05T19:45:31.034Z,5.70
2023-04-05T19:50:35.360Z,6.63
2023-04-05T19:55:38.390Z,4.25
2023-04-05T20:00:52.363Z,8.57
2023-04-05T20:06:07.433Z,6.13
2023-04-05T20:11:13.128Z,4.68
2023-04-05T20:16:15.609Z,6.00
2023-04-05T20:21:17.965Z,4.80
2023-04-05T20:26:28.800Z,6.68
2023-04-05T20:31:32.489Z,4.97
2023-04-05T20:36:36.712Z,5.50
2023-04-05T20:41:38.220Z,7.55
2023-04-05T20:46:39.750Z,7.60
2023-04-05T20:51:43.033Z,8.82
2023-04-05T20:56:45.766Z,6.70
2023-04-05T21:01:47.700Z,5.78
2023-04-05T21:06:49.334Z,6.13
2023-04-05T21:11:50.814Z,4.90
2023-04-05T21:16:52.281Z,5.78
2023-04-05T21:21:54.042Z,4.90
2023-04-05T21:26:56.432Z,5.10
2023-04-05T21:31:57.957Z,8.13
2023-04-05T21:37:01.820Z,6.05
2023-04-05T21:42:03.427Z,5.72
2023-04-05T21:47:05.137Z,6.28
2023-04-05T21:52:06.755Z,6.85
2023-04-05T21:57:08.264Z,6.18
2023-04-05T22:02:11.978Z,7.68
2023-04-05T22:07:13.522Z,6.13
2023-04-05T22:12:15.615Z,6.82
2023-04-05T22:17:18.401Z,6.53
2023-04-05T22:22:19.925Z,7.15
2023-04-05T22:27:21.465Z,6.57
2023-04-05T22:32:23.048Z,6.50
2023-04-05T22:37:24.585Z,6.05
2023-04-05T22:42:26.062Z,5.88
2023-04-05T22:47:27.616Z,7.90
2023-04-05T22:52:29.147Z,7.40
2023-04-05T22:57:31.189Z,9.50
2023-04-05T23:02:32.752Z,7.30
2023-04-05T23:07:34.321Z,7.80
2023-04-05T23:12:36.146Z,8.20
2023-04-05T23:17:37.743Z,9.57
2023-04-05T23:22:39.275Z,8.73
2023-04-05T23:27:40.803Z,8.65
2023-04-05T23:32:42.299Z,8.70
2023-04-05T23:37:45.561Z,6.57
2023-04-05T23:42:47.090Z,8.82
2023-04-05T23:47:48.705Z,7.80
2023-04-05T23:52:50.500Z,9.40
2023-04-05T23:57:53.292Z,12.00
